createdAt,value
2019-06-20T00:00:58.186Z,2.30
2019-06-20T00:01:58.176Z,2.20
2019-06-20T00:02:58.173Z,2.20
2019-06-20T00:03:58.161Z,2.30
2019-06-20T00:04:58.141Z,2.30
2019-06-20T00:05:58.131Z,2.10
2019-06-20T00:06:58.120Z,2.40
2019-06-20T00:07:58.120Z,2.50
2019-06-20T00:08:58.097Z,2.30
2019-06-20T00:09:58.112Z,2.50
2019-06-20T00:10:58.075Z,2.30
2019-06-20T00:11:58.064Z,2.10
2019-06-20T00:13:00.733Z,2.10
2019-06-20T00:13:58.042Z,2.30
2019-06-20T00:14:58.034Z,2.30
2019-06-20T00:15:58.047Z,2.40
2019-06-20T00:16:59.469Z,2.30
2019-06-20T00:17:57.997Z,2.20
2019-06-20T00:18:57.986Z,2.20
2019-06-20T00:19:57.975Z,2.20
2019-06-20T00:20:57.964Z,2.20
2019-06-20T00:21:57.982Z,2.50
2019-06-20T00:22:57.942Z,2.40
2019-06-20T00:23:57.932Z,2.30
2019-06-20T00:24:57.919Z,2.20
2019-06-20T00:25:57.908Z,2.30
2019-06-20T00:26:57.902Z,2.30
2019-06-20T00:27:57.950Z,2.40
2019-06-20T00:28:57.875Z,2.40
2019-06-20T00:29:57.887Z,2.00
2019-06-20T00:30:57.854Z,2.30
2019-06-20T00:31:57.856Z,2.30
2019-06-20T00:32:57.831Z,2.10
2019-06-20T00:33:57.830Z,2.20
2019-06-20T00:34:57.808Z,2.20
2019-06-20T00:35:57.797Z,2.30
2019-06-20T00:36:57.786Z,2.40
2019-06-20T00:37:57.781Z,2.20
2019-06-20T00:38:57.764Z,2.20
2019-06-20T00:39:57.760Z,2.20
2019-06-20T00:40:57.741Z,2.30
2019-06-20T00:41:57.735Z,2.00
2019-06-20T00:42:57.754Z,2.10
2019-06-20T00:43:57.709Z,2.40
2019-06-20T00:44:57.697Z,2.70
2019-06-20T00:45:57.722Z,2.30
2019-06-20T00:46:57.675Z,2.40
2019-06-20T00:47:57.665Z,2.40
2019-06-20T00:48:57.659Z,2.00
2019-06-20T00:49:57.650Z,2.20
2019-06-20T00:50:57.697Z,2.20
2019-06-20T00:51:57.634Z,2.30
2019-06-20T00:52:57.609Z,2.40
2019-06-20T00:53:57.597Z,2.30
2019-06-20T00:54:57.586Z,2.10
2019-06-20T00:55:57.578Z,2.20
2019-06-20T00:56:57.565Z,2.40
2019-06-20T00:57:57.582Z,2.20
2019-06-20T00:58:57.541Z,2.10
2019-06-20T00:59:57.531Z,2.20
2019-06-20T01:00:57.519Z,2.20
2019-06-20T01:01:57.522Z,2.10
2019-06-20T01:02:57.497Z,2.10
2019-06-20T01:03:57.494Z,2.20
2019-06-20T01:04:57.477Z,2.40
2019-06-20T01:05:57.463Z,2.10
2019-06-20T01:06:57.468Z,2.10
2019-06-20T01:07:57.441Z,2.20
2019-06-20T01:08:57.430Z,2.30
2019-06-20T01:09:57.467Z,2.30
2019-06-20T01:10:57.409Z,2.20
2019-06-20T01:11:57.397Z,2.30
2019-06-20T01:12:57.386Z,2.40
2019-06-20T01:13:57.375Z,2.40
2019-06-20T01:14:57.366Z,2.20
2019-06-20T01:15:57.362Z,2.30
2019-06-20T01:16:57.343Z,2.30
2019-06-20T01:17:57.331Z,2.20
2019-06-20T01:18:57.320Z,2.10
2019-06-20T01:19:58.321Z,2.10
2019-06-20T01:20:57.299Z,2.10
2019-06-20T01:21:57.296Z,2.40
2019-06-20T01:22:57.274Z,2.20
2019-06-20T01:23:57.264Z,2.10
2019-06-20T01:24:57.255Z,2.20
2019-06-20T01:25:57.242Z,2.20
2019-06-20T01:26:57.232Z,2.30
2019-06-20T01:27:57.228Z,2.10
2019-06-20T01:28:57.211Z,2.30
2019-06-20T01:29:57.197Z,2.00
2019-06-20T01:30:57.187Z,2.20
2019-06-20T01:31:57.176Z,2.20
2019-06-20T01:32:57.164Z,2.30
2019-06-20T01:33:57.182Z,2.20
2019-06-20T01:34:57.141Z,2.20
2019-06-20T01:35:57.130Z,2.30
2019-06-20T01:36:57.119Z,2.40
2019-06-20T01:37:57.108Z,2.20
2019-06-20T01:38:57.098Z,2.30
2019-06-20T01:39:57.093Z,2.10
2019-06-20T01:40:57.074Z,2.30
2019-06-20T01:41:57.063Z,2.10
2019-06-20T01:42:57.053Z,2.30
2019-06-20T01:43:57.041Z,2.10
2019-06-20T01:44:57.029Z,2.20
2019-06-20T01:45:57.042Z,2.40
2019-06-20T01:46:57.008Z,2.20
2019-06-20T01:47:56.997Z,2.20
2019-06-20T01:48:56.986Z,2.20
2019-06-20T01:49:56.976Z,2.20
2019-06-20T01:50:56.964Z,2.20
2019-06-20T01:51:56.985Z,2.20
2019-06-20T01:52:56.941Z,2.30
2019-06-20T01:53:56.930Z,2.20
2019-06-20T01:54:56.919Z,2.30
2019-06-20T01:55:56.908Z,2.30
2019-06-20T01:56:56.897Z,2.00
2019-06-20T01:57:56.894Z,2.00
2019-06-20T01:58:56.879Z,2.20
2019-06-20T01:59:56.863Z,2.10
2019-06-20T02:00:56.853Z,2.30
2019-06-20T02:01:56.844Z,2.10
2019-06-20T02:02:56.832Z,2.20
2019-06-20T02:03:56.828Z,2.20
2019-06-20T02:04:56.809Z,2.10
2019-06-20T02:05:56.797Z,2.30
2019-06-20T02:06:56.793Z,2.20
2019-06-20T02:07:56.774Z,2.30
2019-06-20T02:08:56.765Z,2.00
2019-06-20T02:09:56.761Z,2.30
2019-06-20T02:10:56.741Z,2.40
2019-06-20T02:11:56.732Z,2.20
2019-06-20T02:12:56.721Z,2.20
2019-06-20T02:14:06.739Z,2.10
2019-06-20T02:14:57.706Z,2.10
2019-06-20T02:15:56.687Z,1.90
2019-06-20T02:16:56.675Z,1.90
2019-06-20T02:17:56.664Z,2.20
2019-06-20T02:18:56.654Z,1.90
2019-06-20T02:19:56.643Z,2.10
2019-06-20T02:20:56.640Z,2.10
2019-06-20T02:21:56.650Z,2.00
2019-06-20T02:22:56.610Z,2.30
2019-06-20T02:23:56.597Z,2.10
2019-06-20T02:24:56.586Z,2.00
2019-06-20T02:25:56.574Z,2.00
2019-06-20T02:26:56.586Z,2.10
2019-06-20T02:27:56.552Z,2.20
2019-06-20T02:28:56.542Z,2.10
2019-06-20T02:29:56.530Z,2.00
2019-06-20T02:30:56.520Z,2.30
2019-06-20T02:31:56.508Z,2.10
2019-06-20T02:32:56.546Z,2.10
2019-06-20T02:33:56.487Z,2.00
2019-06-20T02:34:56.477Z,1.90
2019-06-20T02:35:56.465Z,2.30
2019-06-20T02:36:56.454Z,2.10
2019-06-20T02:37:56.441Z,2.10
2019-06-20T02:38:56.438Z,2.10
2019-06-20T02:39:56.420Z,2.00
2019-06-20T02:40:56.411Z,2.20
2019-06-20T02:41:56.398Z,1.90
2019-06-20T02:42:56.387Z,2.10
2019-06-20T02:43:56.376Z,2.10
2019-06-20T02:44:56.372Z,2.40
2019-06-20T02:45:56.353Z,2.10
2019-06-20T02:46:56.342Z,2.10
2019-06-20T02:47:56.332Z,2.20
2019-06-20T02:48:56.321Z,2.20
2019-06-20T02:49:56.312Z,2.20
2019-06-20T02:50:56.324Z,2.40
2019-06-20T02:51:56.288Z,2.20
2019-06-20T02:52:56.275Z,2.20
2019-06-20T02:53:56.276Z,2.20
2019-06-20T02:54:56.252Z,2.20
2019-06-20T02:55:56.242Z,2.40
2019-06-20T02:56:56.238Z,2.10
2019-06-20T02:57:56.222Z,2.10
2019-06-20T02:58:56.207Z,2.20
2019-06-20T02:59:56.198Z,2.00
2019-06-20T03:00:56.193Z,2.20
2019-06-20T03:01:56.175Z,2.20
2019-06-20T03:02:56.172Z,2.30
2019-06-20T03:03:56.153Z,2.10
2019-06-20T03:04:56.142Z,2.20
2019-06-20T03:05:56.130Z,2.00
2019-06-20T03:06:56.121Z,2.20
2019-06-20T03:07:56.108Z,1.90
2019-06-20T03:08:56.127Z,2.00
2019-06-20T03:09:56.086Z,2.10
2019-06-20T03:10:56.105Z,2.10
2019-06-20T03:11:56.064Z,2.10
2019-06-20T03:12:56.052Z,2.30
2019-06-20T03:13:56.042Z,2.00
2019-06-20T03:14:56.062Z,2.20
2019-06-20T03:15:56.020Z,2.30
2019-06-20T03:16:56.008Z,2.20
2019-06-20T03:17:55.998Z,2.40
2019-06-20T03:18:55.987Z,1.90
2019-06-20T03:19:55.974Z,2.10
2019-06-20T03:20:55.990Z,2.30
2019-06-20T03:21:55.958Z,1.90
2019-06-20T03:22:55.940Z,2.20
2019-06-20T03:23:55.954Z,2.10
2019-06-20T03:24:55.921Z,2.20
2019-06-20T03:25:55.909Z,1.90
2019-06-20T03:26:55.924Z,2.10
2019-06-20T03:27:55.885Z,2.10
2019-06-20T03:28:55.875Z,1.90
2019-06-20T03:29:55.867Z,2.00
2019-06-20T03:30:55.853Z,1.90
2019-06-20T03:31:55.844Z,2.00
2019-06-20T03:32:55.837Z,2.20
2019-06-20T03:33:55.819Z,2.10
2019-06-20T03:34:55.810Z,2.00
2019-06-20T03:35:55.798Z,2.10
2019-06-20T03:36:55.785Z,2.10
2019-06-20T03:37:55.777Z,2.00
2019-06-20T03:38:55.771Z,2.10
2019-06-20T03:39:55.753Z,2.20
2019-06-20T03:40:55.740Z,2.00
2019-06-20T03:41:55.729Z,2.10
2019-06-20T03:42:55.719Z,2.10
2019-06-20T03:43:58.929Z,1.90
2019-06-20T03:45:02.134Z,2.00
2019-06-20T03:45:56.684Z,2.10
2019-06-20T03:46:55.674Z,2.20
2019-06-20T03:47:55.664Z,2.40
2019-06-20T03:48:55.652Z,2.00
2019-06-20T03:49:55.643Z,2.10
2019-06-20T03:50:55.650Z,1.90
2019-06-20T03:51:55.619Z,2.20
2019-06-20T03:52:55.608Z,2.10
2019-06-20T03:53:55.598Z,2.20
2019-06-20T03:54:55.584Z,2.20
2019-06-20T03:55:55.577Z,2.20
2019-06-20T03:56:55.570Z,2.10
2019-06-20T03:57:55.552Z,1.80
2019-06-20T03:58:55.543Z,2.00
2019-06-20T03:59:55.531Z,2.10
2019-06-20T04:00:55.571Z,2.20
2019-06-20T04:01:55.511Z,2.20
2019-06-20T04:02:55.504Z,2.00
2019-06-20T04:03:55.485Z,2.00
2019-06-20T04:04:55.484Z,1.90
2019-06-20T04:05:55.462Z,2.20
2019-06-20T04:06:55.453Z,2.10
2019-06-20T04:07:55.441Z,2.10
2019-06-20T04:08:55.435Z,2.30
2019-06-20T04:09:55.419Z,2.10
2019-06-20T04:10:55.407Z,2.10
2019-06-20T04:11:55.397Z,2.10
2019-06-20T04:12:55.385Z,2.20
2019-06-20T04:13:55.374Z,2.00
2019-06-20T04:14:55.372Z,2.10
2019-06-20T04:15:55.352Z,2.10
2019-06-20T04:16:55.341Z,2.10
2019-06-20T04:17:55.332Z,2.10
2019-06-20T04:18:55.318Z,2.20
2019-06-20T04:19:55.308Z,2.00
2019-06-20T04:20:55.305Z,2.10
2019-06-20T04:21:55.285Z,1.90
2019-06-20T04:22:55.274Z,2.10
2019-06-20T04:23:55.264Z,2.10
2019-06-20T04:24:55.254Z,2.30
2019-06-20T04:25:55.243Z,2.20
2019-06-20T04:26:55.237Z,2.00
2019-06-20T04:27:55.222Z,2.20
2019-06-20T04:28:55.211Z,2.00
2019-06-20T04:29:55.199Z,2.10
2019-06-20T04:30:55.201Z,2.10
2019-06-20T04:31:55.184Z,2.20
2019-06-20T04:32:55.189Z,2.20
2019-06-20T04:33:55.156Z,1.90
2019-06-20T04:34:55.141Z,2.20
2019-06-20T04:35:55.131Z,2.10
2019-06-20T04:36:55.117Z,2.10
2019-06-20T04:37:55.111Z,1.90
2019-06-20T04:38:55.112Z,2.10
2019-06-20T04:39:55.085Z,2.10
2019-06-20T04:40:55.076Z,2.20
2019-06-20T04:41:55.063Z,2.20
2019-06-20T04:42:55.054Z,2.00
2019-06-20T04:43:55.040Z,2.10
2019-06-20T04:44:55.037Z,2.00
2019-06-20T04:45:55.017Z,2.10
2019-06-20T04:46:55.007Z,2.10
2019-06-20T04:47:54.997Z,2.20
2019-06-20T04:48:54.984Z,2.20
2019-06-20T04:49:54.973Z,2.10
2019-06-20T04:50:54.969Z,2.10
2019-06-20T04:51:54.951Z,2.20
2019-06-20T04:52:54.941Z,1.90
2019-06-20T04:53:54.929Z,2.10
2019-06-20T04:54:54.919Z,2.20
2019-06-20T04:55:54.927Z,2.00
2019-06-20T04:56:54.910Z,2.00
2019-06-20T04:57:54.884Z,2.00
2019-06-20T04:58:54.873Z,1.80
2019-06-20T04:59:54.862Z,2.20
2019-06-20T05:00:54.851Z,2.00
2019-06-20T05:01:54.841Z,1.90
2019-06-20T05:02:54.869Z,1.90
2019-06-20T05:03:54.818Z,2.00
2019-06-20T05:04:54.806Z,2.00
2019-06-20T05:05:54.796Z,2.00
2019-06-20T05:06:54.785Z,1.90
2019-06-20T05:07:54.773Z,2.10
2019-06-20T05:08:54.770Z,1.90
2019-06-20T05:09:54.751Z,2.10
2019-06-20T05:10:54.740Z,2.20
2019-06-20T05:11:54.729Z,2.00
2019-06-20T05:12:56.071Z,2.10
2019-06-20T05:13:54.706Z,2.00
2019-06-20T05:14:54.702Z,1.90
2019-06-20T05:15:54.684Z,2.30
2019-06-20T05:16:54.673Z,2.10
2019-06-20T05:17:54.661Z,2.10
2019-06-20T05:18:54.653Z,2.00
2019-06-20T05:19:54.642Z,2.10
2019-06-20T05:20:54.658Z,2.10
2019-06-20T05:21:54.617Z,2.10
2019-06-20T05:22:54.610Z,2.10
2019-06-20T05:23:54.595Z,1.80
2019-06-20T05:24:54.584Z,1.90
2019-06-20T05:25:54.573Z,2.00
2019-06-20T05:26:54.581Z,2.00
2019-06-20T05:27:54.554Z,2.00
2019-06-20T05:28:54.539Z,2.00
2019-06-20T05:29:54.527Z,2.00
2019-06-20T05:30:54.517Z,1.90
2019-06-20T05:31:54.512Z,1.90
2019-06-20T05:32:54.526Z,2.10
2019-06-20T05:33:54.485Z,2.10
2019-06-20T05:34:54.473Z,2.30
2019-06-20T05:35:54.463Z,2.20
2019-06-20T05:36:54.453Z,1.90
2019-06-20T05:37:54.439Z,2.10
2019-06-20T05:38:54.450Z,2.00
2019-06-20T05:39:54.417Z,2.00
2019-06-20T05:40:54.407Z,2.00
2019-06-20T05:41:54.413Z,2.00
2019-06-20T05:42:54.483Z,2.10
2019-06-20T05:43:54.373Z,2.30
2019-06-20T05:44:54.422Z,2.00
2019-06-20T05:46:08.257Z,2.10
2019-06-20T05:47:11.398Z,2.00
2019-06-20T05:47:55.326Z,2.10
2019-06-20T05:48:54.317Z,1.90
2019-06-20T05:49:55.019Z,1.80
2019-06-20T05:50:54.301Z,2.10
2019-06-20T05:51:54.285Z,2.10
2019-06-20T05:52:54.273Z,2.00
2019-06-20T05:53:54.263Z,2.10
2019-06-20T05:54:54.251Z,2.10
2019-06-20T05:55:54.240Z,2.00
2019-06-20T05:56:54.263Z,1.90
2019-06-20T05:57:54.217Z,2.00
2019-06-20T05:58:54.206Z,1.90
2019-06-20T05:59:54.197Z,2.10
2019-06-20T06:00:54.186Z,2.10
2019-06-20T06:01:56.403Z,1.90
2019-06-20T06:02:54.169Z,1.90
2019-06-20T06:03:54.151Z,1.90
2019-06-20T06:04:54.141Z,2.20
2019-06-20T06:05:54.647Z,2.10
2019-06-20T06:06:54.118Z,2.10
2019-06-20T06:07:54.106Z,2.10
2019-06-20T06:08:54.142Z,2.00
2019-06-20T06:09:54.084Z,2.00
2019-06-20T06:10:54.074Z,2.00
2019-06-20T06:11:54.062Z,2.20
2019-06-20T06:12:54.058Z,2.00
2019-06-20T06:13:54.039Z,2.00
2019-06-20T06:14:54.057Z,2.10
2019-06-20T06:15:54.019Z,2.00
2019-06-20T06:16:54.013Z,2.00
2019-06-20T06:17:53.998Z,2.20
2019-06-20T06:18:55.069Z,2.00
2019-06-20T06:19:53.990Z,1.90
2019-06-20T06:20:53.967Z,2.00
2019-06-20T06:21:53.951Z,2.10
2019-06-20T06:22:53.939Z,2.00
2019-06-20T06:23:53.929Z,2.10
2019-06-20T06:24:53.920Z,1.80
2019-06-20T06:25:53.909Z,2.10
2019-06-20T06:26:53.903Z,2.20
2019-06-20T06:27:53.885Z,2.00
2019-06-20T06:28:53.873Z,2.00
2019-06-20T06:29:53.863Z,2.00
2019-06-20T06:30:53.851Z,1.80
2019-06-20T06:31:53.839Z,2.10
2019-06-20T06:32:53.860Z,2.10
2019-06-20T06:33:53.836Z,2.10
2019-06-20T06:34:53.805Z,2.00
2019-06-20T06:35:53.798Z,2.00
2019-06-20T06:36:53.783Z,1.90
2019-06-20T06:37:53.773Z,2.00
2019-06-20T06:38:53.772Z,2.00
2019-06-20T06:39:53.752Z,1.90
2019-06-20T06:40:53.739Z,2.10
2019-06-20T06:41:53.728Z,2.20
2019-06-20T06:42:53.717Z,2.00
2019-06-20T06:43:53.732Z,2.00
2019-06-20T06:44:53.706Z,2.00
2019-06-20T06:45:53.685Z,2.20
2019-06-20T06:46:59.303Z,2.10
2019-06-20T06:47:54.661Z,2.00
2019-06-20T06:48:53.666Z,2.10
2019-06-20T06:49:53.638Z,2.00
2019-06-20T06:50:53.638Z,1.90
2019-06-20T06:51:53.620Z,2.10
2019-06-20T06:52:53.617Z,2.10
2019-06-20T06:53:53.596Z,2.10
2019-06-20T06:54:53.585Z,2.10
2019-06-20T06:55:53.574Z,2.00
2019-06-20T06:56:53.583Z,2.30
2019-06-20T06:57:53.554Z,2.10
2019-06-20T06:58:53.538Z,2.10
2019-06-20T06:59:53.529Z,2.20
2019-06-20T07:00:53.531Z,2.10
2019-06-20T07:01:53.509Z,2.20
2019-06-20T07:02:53.504Z,2.10
2019-06-20T07:03:53.491Z,2.10
2019-06-20T07:04:53.473Z,2.00
2019-06-20T07:05:53.461Z,2.20
2019-06-20T07:06:53.451Z,2.20
2019-06-20T07:07:53.440Z,2.10
2019-06-20T07:08:53.435Z,2.30
2019-06-20T07:09:53.446Z,2.20
2019-06-20T07:10:53.409Z,2.20
2019-06-20T07:11:53.405Z,2.30
2019-06-20T07:12:53.383Z,2.10
2019-06-20T07:13:53.377Z,2.10
2019-06-20T07:14:53.457Z,2.10
2019-06-20T07:15:53.352Z,2.10
2019-06-20T07:17:00.370Z,2.20
2019-06-20T07:17:54.331Z,2.00
2019-06-20T07:18:53.320Z,2.30
2019-06-20T07:19:53.307Z,2.00
2019-06-20T07:20:53.302Z,2.40
2019-06-20T07:21:53.288Z,2.20
2019-06-20T07:22:53.294Z,2.20
2019-06-20T07:23:53.270Z,2.30
2019-06-20T07:24:53.256Z,2.00
2019-06-20T07:25:53.241Z,2.10
2019-06-20T07:26:53.238Z,2.10
2019-06-20T07:27:53.217Z,2.30
2019-06-20T07:28:53.210Z,2.20
2019-06-20T07:29:53.197Z,2.00
2019-06-20T07:30:53.186Z,2.20
2019-06-20T07:31:53.182Z,2.20
2019-06-20T07:32:53.169Z,2.10
2019-06-20T07:33:53.150Z,2.10
2019-06-20T07:34:53.140Z,2.30
2019-06-20T07:35:53.135Z,2.00
2019-06-20T07:36:53.125Z,2.10
2019-06-20T07:37:53.111Z,2.10
2019-06-20T07:38:53.127Z,2.20
2019-06-20T07:39:53.087Z,2.40
2019-06-20T07:40:53.074Z,2.40
2019-06-20T07:41:53.065Z,2.20
2019-06-20T07:42:53.053Z,2.40
2019-06-20T07:43:53.047Z,2.50
2019-06-20T07:44:53.036Z,2.30
2019-06-20T07:46:02.631Z,2.70
2019-06-20T07:46:54.006Z,2.40
2019-06-20T07:47:53.005Z,2.50
2019-06-20T07:48:52.986Z,2.60
2019-06-20T07:49:52.979Z,2.50
2019-06-20T07:50:52.972Z,2.70
2019-06-20T07:51:52.951Z,2.50
2019-06-20T07:53:01.885Z,2.60
2019-06-20T07:53:53.929Z,2.70
2019-06-20T07:54:52.917Z,2.50
2019-06-20T07:55:52.906Z,2.60
2019-06-20T07:56:52.921Z,2.30
2019-06-20T07:57:52.886Z,2.60
2019-06-20T07:58:52.877Z,2.70
2019-06-20T07:59:52.863Z,2.50
2019-06-20T08:00:52.852Z,2.60
2019-06-20T08:01:52.841Z,2.40
2019-06-20T08:02:52.835Z,2.70
2019-06-20T08:03:52.823Z,2.40
2019-06-20T08:04:52.806Z,2.20
2019-06-20T08:05:52.795Z,2.40
2019-06-20T08:06:52.790Z,2.50
2019-06-20T08:07:52.774Z,2.40
2019-06-20T08:08:52.783Z,2.40
2019-06-20T08:09:52.750Z,2.40
2019-06-20T08:10:52.741Z,2.40
2019-06-20T08:11:52.761Z,2.60
2019-06-20T08:12:52.716Z,2.40
2019-06-20T08:13:52.707Z,2.50
2019-06-20T08:14:52.719Z,2.40
2019-06-20T08:15:52.689Z,2.60
2019-06-20T08:16:52.677Z,2.70
2019-06-20T08:17:52.662Z,2.60
2019-06-20T08:18:52.651Z,2.50
2019-06-20T08:19:52.640Z,2.50
2019-06-20T08:20:52.662Z,2.50
2019-06-20T08:21:52.617Z,2.30
2019-06-20T08:22:52.612Z,2.50
2019-06-20T08:23:52.611Z,2.40
2019-06-20T08:24:53.780Z,2.60
2019-06-20T08:25:52.573Z,2.40
2019-06-20T08:26:52.627Z,2.40
2019-06-20T08:27:52.550Z,2.40
2019-06-20T08:29:07.442Z,2.50
2019-06-20T08:29:53.529Z,2.60
2019-06-20T08:30:52.517Z,2.50
2019-06-20T08:31:52.508Z,2.60
2019-06-20T08:32:52.530Z,2.60
2019-06-20T08:33:52.484Z,2.40
2019-06-20T08:34:52.473Z,2.40
2019-06-20T08:35:52.466Z,2.40
2019-06-20T08:36:52.452Z,2.30
2019-06-20T08:37:52.440Z,2.40
2019-06-20T08:38:52.460Z,2.40
2019-06-20T08:39:52.416Z,2.50
2019-06-20T08:40:52.407Z,2.20
2019-06-20T08:41:52.399Z,2.40
2019-06-20T08:42:52.422Z,2.60
2019-06-20T08:43:52.373Z,2.20
2019-06-20T08:44:52.413Z,2.40
2019-06-20T08:45:52.351Z,2.50
2019-06-20T08:46:52.350Z,2.20
2019-06-20T08:47:52.328Z,2.40
2019-06-20T08:48:52.317Z,2.40
2019-06-20T08:49:52.307Z,2.50
2019-06-20T08:50:52.303Z,2.20
2019-06-20T08:51:52.328Z,2.50
2019-06-20T08:52:52.275Z,2.30
2019-06-20T08:53:52.263Z,2.30
2019-06-20T08:54:52.251Z,2.20
2019-06-20T08:55:52.244Z,2.30
2019-06-20T08:56:52.519Z,2.30
2019-06-20T08:57:52.217Z,2.10
2019-06-20T08:58:52.214Z,2.30
2019-06-20T08:59:52.196Z,2.20
2019-06-20T09:00:52.203Z,2.30
2019-06-20T09:01:52.237Z,2.40
2019-06-20T09:02:52.172Z,2.20
2019-06-20T09:03:52.151Z,2.30
2019-06-20T09:04:54.818Z,2.20
2019-06-20T09:05:54.894Z,2.10
2019-06-20T09:06:55.174Z,2.20
2019-06-20T09:07:54.803Z,2.20
2019-06-20T09:08:53.818Z,2.20
2019-06-20T09:09:52.961Z,2.40
2019-06-20T09:10:54.120Z,2.40
2019-06-20T09:11:52.062Z,2.40
2019-06-20T09:12:53.687Z,2.70
2019-06-20T09:13:53.794Z,2.50
2019-06-20T09:14:52.403Z,2.40
2019-06-20T09:15:52.428Z,2.10
2019-06-20T09:16:52.272Z,2.30
2019-06-20T09:17:53.398Z,2.20
2019-06-20T09:18:53.189Z,2.40
2019-06-20T09:19:52.890Z,2.20
2019-06-20T09:20:53.149Z,2.20
2019-06-20T09:21:53.924Z,2.40
2019-06-20T09:22:52.336Z,2.20
2019-06-20T09:23:53.825Z,2.00
2019-06-20T09:24:52.066Z,2.20
2019-06-20T09:25:52.316Z,2.30
2019-06-20T09:26:52.862Z,2.10
2019-06-20T09:27:54.098Z,2.30
2019-06-20T09:28:52.685Z,2.00
2019-06-20T09:29:53.275Z,2.20
2019-06-20T09:30:53.545Z,2.30
2019-06-20T09:31:53.794Z,2.20
2019-06-20T09:32:53.627Z,2.40
2019-06-20T09:33:52.642Z,2.20
2019-06-20T09:34:52.999Z,2.20
2019-06-20T09:35:52.684Z,2.30
2019-06-20T09:36:52.535Z,2.20
2019-06-20T09:37:51.899Z,2.20
2019-06-20T09:38:52.488Z,2.30
2019-06-20T09:39:53.140Z,2.30
2019-06-20T09:40:53.017Z,2.20
2019-06-20T09:41:52.692Z,2.20
2019-06-20T09:42:52.944Z,2.20
2019-06-20T09:43:52.737Z,2.30
2019-06-20T09:44:52.621Z,2.40
2019-06-20T09:45:53.163Z,2.20
2019-06-20T09:46:52.404Z,2.30
2019-06-20T09:47:52.218Z,2.20
2019-06-20T09:48:52.762Z,2.10
2019-06-20T09:49:54.121Z,2.40
2019-06-20T09:50:52.899Z,2.20
2019-06-20T09:51:52.148Z,2.40
2019-06-20T09:52:53.152Z,2.10
2019-06-20T09:53:51.911Z,2.00
2019-06-20T09:54:51.750Z,1.90
2019-06-20T09:55:51.838Z,2.40
2019-06-20T09:56:53.489Z,2.10
2019-06-20T09:57:52.013Z,2.20
2019-06-20T09:58:51.544Z,2.20
2019-06-20T10:00:02.834Z,2.10
2019-06-20T10:00:52.884Z,2.00
2019-06-20T10:01:53.427Z,2.00
2019-06-20T10:02:52.431Z,2.00
2019-06-20T10:03:52.443Z,2.40
2019-06-20T10:04:52.363Z,2.30
2019-06-20T10:05:52.456Z,2.20
2019-06-20T10:06:52.301Z,2.20
2019-06-20T10:07:52.270Z,2.20
2019-06-20T10:08:52.365Z,2.30
2019-06-20T10:09:52.060Z,2.00
2019-06-20T10:10:52.422Z,2.00
2019-06-20T10:11:51.931Z,2.00
2019-06-20T10:12:51.756Z,2.30
2019-06-20T10:13:52.236Z,2.10
2019-06-20T10:14:51.588Z,2.00
2019-06-20T10:15:51.563Z,1.90
2019-06-20T10:16:53.534Z,2.00
2019-06-20T10:17:51.329Z,2.40
2019-06-20T10:18:52.157Z,2.10
2019-06-20T10:19:52.071Z,2.20
2019-06-20T10:20:51.325Z,2.00
2019-06-20T10:21:51.933Z,2.10
2019-06-20T10:22:51.272Z,2.10
2019-06-20T10:23:51.941Z,2.30
2019-06-20T10:24:51.345Z,2.10
2019-06-20T10:25:51.552Z,2.30
2019-06-20T10:26:51.543Z,2.10
2019-06-20T10:27:51.445Z,2.00
2019-06-20T10:28:51.451Z,2.20
2019-06-20T10:29:51.195Z,1.90
2019-06-20T10:30:51.204Z,2.10
2019-06-20T10:31:51.173Z,2.10
2019-06-20T10:32:51.195Z,2.00
2019-06-20T10:33:52.475Z,2.20
2019-06-20T10:34:51.140Z,2.10
2019-06-20T10:35:52.589Z,2.00
2019-06-20T10:36:52.402Z,2.00
2019-06-20T10:37:52.702Z,2.20
2019-06-20T10:38:52.608Z,2.10
2019-06-20T10:39:52.097Z,2.10
2019-06-20T10:40:52.061Z,1.90
2019-06-20T10:41:52.318Z,2.20
2019-06-20T10:42:52.757Z,2.20
2019-06-20T10:43:51.766Z,2.40
2019-06-20T10:44:52.151Z,2.30
2019-06-20T10:45:51.021Z,2.20
2019-06-20T10:46:51.449Z,2.10
2019-06-20T10:47:51.098Z,2.20
2019-06-20T10:48:52.621Z,2.10
2019-06-20T10:49:51.962Z,2.20
2019-06-20T10:50:52.032Z,2.30
2019-06-20T10:51:51.940Z,2.20
2019-06-20T10:52:51.883Z,2.30
2019-06-20T10:53:51.394Z,2.30
2019-06-20T10:54:51.459Z,2.30
2019-06-20T10:55:51.181Z,2.40
2019-06-20T10:56:51.094Z,2.40
2019-06-20T10:57:51.864Z,2.60
2019-06-20T10:58:50.874Z,2.80
2019-06-20T10:59:50.989Z,2.60
2019-06-20T11:00:50.852Z,2.60
2019-06-20T11:01:50.850Z,2.80
2019-06-20T11:02:51.269Z,2.70
2019-06-20T11:03:50.817Z,2.60
2019-06-20T11:04:50.810Z,2.70
2019-06-20T11:05:50.795Z,2.70
2019-06-20T11:06:50.786Z,3.10
2019-06-20T11:07:50.775Z,3.20
2019-06-20T11:08:50.799Z,3.20
2019-06-20T11:09:50.751Z,3.20
2019-06-20T11:10:50.741Z,2.80
2019-06-20T11:11:50.734Z,2.80
2019-06-20T11:12:55.637Z,3.00
2019-06-20T11:13:51.716Z,2.80
2019-06-20T11:14:50.773Z,2.70
2019-06-20T11:15:50.687Z,3.00
2019-06-20T11:16:50.674Z,2.80
2019-06-20T11:17:50.663Z,2.70
2019-06-20T11:18:50.655Z,2.90
2019-06-20T11:19:50.661Z,2.70
2019-06-20T11:20:50.630Z,2.80
2019-06-20T11:21:50.624Z,2.80
2019-06-20T11:22:50.621Z,2.70
2019-06-20T11:23:50.598Z,2.60
2019-06-20T11:24:50.586Z,2.80
2019-06-20T11:25:50.609Z,2.70
2019-06-20T11:26:50.578Z,2.70
2019-06-20T11:27:50.562Z,2.70
2019-06-20T11:28:50.566Z,2.80
2019-06-20T11:29:50.533Z,2.60
2019-06-20T11:30:59.532Z,2.60
2019-06-20T11:31:51.559Z,2.70
2019-06-20T11:32:50.497Z,2.60
2019-06-20T11:33:50.509Z,2.50
2019-06-20T11:34:50.478Z,2.70
2019-06-20T11:35:50.465Z,2.60
2019-06-20T11:36:50.467Z,2.40
2019-06-20T11:37:50.475Z,2.20
2019-06-20T11:38:50.446Z,2.70
2019-06-20T11:39:51.357Z,2.80
2019-06-20T11:40:50.410Z,2.70
2019-06-20T11:41:50.397Z,2.50
2019-06-20T11:42:50.389Z,2.90
2019-06-20T11:43:50.397Z,2.60
2019-06-20T11:44:50.369Z,2.80
2019-06-20T11:45:50.361Z,2.70
2019-06-20T11:46:50.342Z,2.60
2019-06-20T11:47:50.336Z,2.70
2019-06-20T11:48:50.327Z,2.70
2019-06-20T11:49:50.339Z,2.60
2019-06-20T11:50:50.314Z,3.10
2019-06-20T11:51:50.287Z,2.50
2019-06-20T11:52:50.283Z,2.50
2019-06-20T11:53:50.265Z,2.20
2019-06-20T11:54:50.255Z,2.60
2019-06-20T11:55:50.264Z,2.60
2019-06-20T11:56:50.233Z,2.50
2019-06-20T11:57:50.221Z,2.40
2019-06-20T11:58:50.226Z,2.40
2019-06-20T11:59:50.232Z,2.40
2019-06-20T12:01:03.005Z,2.40
2019-06-20T12:01:51.287Z,2.40
2019-06-20T12:02:50.368Z,2.50
2019-06-20T12:03:50.154Z,2.40
2019-06-20T12:04:50.150Z,2.50
2019-06-20T12:05:50.132Z,2.50
2019-06-20T12:06:50.120Z,2.30
2019-06-20T12:07:50.308Z,2.30
2019-06-20T12:08:50.100Z,2.20
2019-06-20T12:09:51.125Z,2.50
2019-06-20T12:10:50.077Z,2.70
2019-06-20T12:11:50.067Z,2.50
2019-06-20T12:12:50.055Z,2.30
2019-06-20T12:13:50.052Z,2.30
2019-06-20T12:14:50.036Z,2.30
2019-06-20T12:15:50.022Z,2.30
2019-06-20T12:16:50.011Z,2.40
2019-06-20T12:17:50.147Z,2.20
2019-06-20T12:18:49.990Z,2.20
2019-06-20T12:19:50.021Z,2.30
2019-06-20T12:20:49.966Z,2.30
2019-06-20T12:21:49.955Z,2.10
2019-06-20T12:22:50.815Z,2.20
2019-06-20T12:23:49.932Z,2.30
2019-06-20T12:24:49.923Z,2.10
2019-06-20T12:25:49.945Z,2.30
2019-06-20T12:26:49.912Z,2.10
2019-06-20T12:27:49.986Z,2.10
2019-06-20T12:28:49.883Z,2.30
2019-06-20T12:29:49.868Z,2.20
2019-06-20T12:30:50.492Z,2.10
2019-06-20T12:31:49.853Z,2.20
2019-06-20T12:32:49.833Z,2.10
2019-06-20T12:33:49.822Z,2.30
2019-06-20T12:34:49.811Z,2.10
2019-06-20T12:35:49.821Z,2.10
2019-06-20T12:36:49.789Z,2.00
2019-06-20T12:37:50.200Z,2.00
2019-06-20T12:38:50.868Z,2.20
2019-06-20T12:39:49.757Z,2.40
2019-06-20T12:40:50.369Z,2.20
2019-06-20T12:41:50.270Z,2.00
2019-06-20T12:42:49.726Z,2.00
2019-06-20T12:43:49.732Z,2.10
2019-06-20T12:44:50.832Z,2.10
2019-06-20T12:45:49.688Z,2.20
2019-06-20T12:46:49.677Z,2.20
2019-06-20T12:47:50.122Z,2.00
2019-06-20T12:48:49.655Z,2.10
2019-06-20T12:49:50.706Z,2.00
2019-06-20T12:50:49.660Z,2.00
2019-06-20T12:51:49.622Z,2.10
2019-06-20T12:52:49.798Z,1.80
2019-06-20T12:53:50.940Z,2.00
2019-06-20T12:54:49.588Z,2.10
2019-06-20T12:55:50.721Z,2.00
2019-06-20T12:56:49.566Z,2.10
2019-06-20T12:57:49.708Z,2.20
2019-06-20T12:58:49.544Z,1.90
2019-06-20T12:59:49.533Z,1.90
2019-06-20T13:00:50.382Z,2.00
2019-06-20T13:01:51.060Z,2.10
2019-06-20T13:02:49.849Z,1.80
2019-06-20T13:03:50.538Z,1.80
2019-06-20T13:04:50.614Z,2.10
2019-06-20T13:05:49.467Z,1.90
2019-06-20T13:06:49.556Z,2.10
2019-06-20T13:07:50.305Z,2.00
2019-06-20T13:08:49.484Z,2.00
2019-06-20T13:09:49.421Z,2.10
2019-06-20T13:10:49.412Z,1.90
2019-06-20T13:11:49.400Z,2.20
2019-06-20T13:12:49.388Z,1.90
2019-06-20T13:13:49.402Z,1.90
2019-06-20T13:14:49.608Z,1.90
2019-06-20T13:15:49.356Z,2.00
2019-06-20T13:16:50.270Z,2.20
2019-06-20T13:17:49.381Z,2.00
2019-06-20T13:18:50.436Z,2.00